sensor_id;sensor_type;location;lat;lon;timestamp;P1;durP1;ratioP1;P2;durP2;ratioP2
14251;SDS011;7210;51.502;10.722;2023-02-01T00:00:38;11.77;;;3.80;;
14251;SDS011;7210;51.502;10.722;2023-02-01T00:03:05;16.00;;;4.00;;
14251;SDS011;7210;51.502;10.722;2023-02-01T00:05:33;16.70;;;4.00;;
14251;SDS011;7210;51.502;10.722;2023-02-01T00:08:02;15.13;;;4.70;;
14251;SDS011;7210;51.502;10.722;2023-02-01T00:10:29;13.07;;;3.60;;
14251;SDS011;7210;51.502;10.722;2023-02-01T00:12:57;13.90;;;3.47;;
14251;SDS011;7210;51.502;10.722;2023-02-01T00:15:25;10.67;;;3.57;;
14251;SDS011;7210;51.502;10.722;2023-02-01T00:17:54;12.37;;;4.00;;
14251;SDS011;7210;51.502;10.722;2023-02-01T00:20:22;11.90;;;4.03;;
14251;SDS011;7210;51.502;10.722;2023-02-01T00:22:51;18.37;;;3.97;;
14251;SDS011;7210;51.502;10.722;2023-02-01T00:25:21;15.10;;;4.37;;
14251;SDS011;7210;51.502;10.722;2023-02-01T00:27:50;14.07;;;4.30;;
14251;SDS011;7210;51.502;10.722;2023-02-01T00:30:18;15.63;;;4.07;;
14251;SDS011;7210;51.502;10.722;2023-02-01T00:32:47;12.27;;;3.50;;
14251;SDS011;7210;51.502;10.722;2023-02-01T00:35:16;13.50;;;3.93;;
14251;SDS011;7210;51.502;10.722;2023-02-01T00:37:44;7.40;;;3.47;;
14251;SDS011;7210;51.502;10.722;2023-02-01T00:40:14;12.00;;;3.70;;
14251;SDS011;7210;51.502;10.722;2023-02-01T00:42:44;18.23;;;4.47;;
14251;SDS011;7210;51.502;10.722;2023-02-01T00:45:11;13.80;;;4.50;;
14251;SDS011;7210;51.502;10.722;2023-02-01T00:47:38;13.17;;;3.90;;
14251;SDS011;7210;51.502;10.722;2023-02-01T00:50:05;16.83;;;4.60;;
14251;SDS011;7210;51.502;10.722;2023-02-01T00:52:33;16.60;;;4.03;;
14251;SDS011;7210;51.502;10.722;2023-02-01T00:55:01;11.03;;;3.47;;
14251;SDS011;7210;51.502;10.722;2023-02-01T00:57:28;15.90;;;3.77;;
14251;SDS011;7210;51.502;10.722;2023-02-01T00:59:56;15.10;;;4.53;;
14251;SDS011;7210;51.502;10.722;2023-02-01T01:02:24;12.33;;;3.93;;
14251;SDS011;7210;51.502;10.722;2023-02-01T01:04:53;13.10;;;3.33;;
14251;SDS011;7210;51.502;10.722;2023-02-01T01:07:20;11.63;;;4.57;;
14251;SDS011;7210;51.502;10.722;2023-02-01T01:09:50;13.50;;;3.47;;
14251;SDS011;7210;51.502;10.722;2023-02-01T01:12:17;18.03;;;3.73;;
14251;SDS011;7210;51.502;10.722;2023-02-01T01:14:45;12.70;;;3.53;;
14251;SDS011;7210;51.502;10.722;2023-02-01T01:17:15;16.30;;;4.40;;
14251;SDS011;7210;51.502;10.722;2023-02-01T01:19:44;14.33;;;4.57;;
14251;SDS011;7210;51.502;10.722;2023-02-01T01:22:11;15.27;;;3.70;;
14251;SDS011;7210;51.502;10.722;2023-02-01T01:24:38;15.63;;;3.80;;
14251;SDS011;7210;51.502;10.722;2023-02-01T01:27:06;14.50;;;3.40;;
14251;SDS011;7210;51.502;10.722;2023-02-01T01:29:36;14.73;;;4.37;;
14251;SDS011;7210;51.502;10.722;2023-02-01T01:32:03;16.73;;;4.37;;
14251;SDS011;7210;51.502;10.722;2023-02-01T01:34:32;13.70;;;3.40;;
14251;SDS011;7210;51.502;10.722;2023-02-01T01:36:59;18.13;;;4.03;;
14251;SDS011;7210;51.502;10.722;2023-02-01T01:39:26;14.60;;;4.00;;
14251;SDS011;7210;51.502;10.722;2023-02-01T01:41:53;11.73;;;3.20;;
14251;SDS011;7210;51.502;10.722;2023-02-01T01:47:29;13.57;;;3.80;;
14251;SDS011;7210;51.502;10.722;2023-02-01T01:50:05;12.27;;;3.60;;
14251;SDS011;7210;51.502;10.722;2023-02-01T01:52:36;14.40;;;4.37;;
14251;SDS011;7210;51.502;10.722;2023-02-01T01:55:07;12.27;;;3.30;;
14251;SDS011;7210;51.502;10.722;2023-02-01T01:57:37;13.63;;;3.73;;
14251;SDS011;7210;51.502;10.722;2023-02-01T02:00:09;15.73;;;4.63;;
14251;SDS011;7210;51.502;10.722;2023-02-01T02:02:40;13.67;;;3.93;;
14251;SDS011;7210;51.502;10.722;2023-02-01T02:05:14;14.40;;;3.97;;
14251;SDS011;7210;51.502;10.722;2023-02-01T02:07:45;14.83;;;4.10;;
14251;SDS011;7210;51.502;10.722;2023-02-01T02:10:17;12.53;;;3.70;;
14251;SDS011;7210;51.502;10.722;2023-02-01T02:12:45;16.73;;;5.17;;
14251;SDS011;7210;51.502;10.722;2023-02-01T02:15:14;15.70;;;4.07;;
14251;SDS011;7210;51.502;10.722;2023-02-01T02:17:44;15.90;;;3.90;;
14251;SDS011;7210;51.502;10.722;2023-02-01T02:23:34;12.57;;;3.73;;
14251;SDS011;7210;51.502;10.722;2023-02-01T02:26:33;17.53;;;4.57;;
14251;SDS011;7210;51.502;10.722;2023-02-01T02:32:35;13.80;;;3.83;;
14251;SDS011;7210;51.502;10.722;2023-02-01T02:35:32;18.10;;;4.07;;
14251;SDS011;7210;51.502;10.722;2023-02-01T02:38:16;12.83;;;4.07;;
14251;SDS011;7210;51.502;10.722;2023-02-01T02:40:58;12.37;;;3.93;;
14251;SDS011;7210;51.502;10.722;2023-02-01T02:43:37;13.10;;;3.97;;
14251;SDS011;7210;51.502;10.722;2023-02-01T02:46:33;13.00;;;4.30;;
14251;SDS011;7210;51.502;10.722;2023-02-01T02:49:26;14.27;;;4.43;;
14251;SDS011;7210;51.502;10.722;2023-02-01T02:52:05;14.63;;;4.03;;
14251;SDS011;7210;51.502;10.722;2023-02-01T02:54:56;13.27;;;4.30;;
14251;SDS011;7210;51.502;10.722;2023-02-01T02:57:28;17.80;;;4.17;;
14251;SDS011;7210;51.502;10.722;2023-02-01T03:00:21;13.03;;;3.70;;
14251;SDS011;7210;51.502;10.722;2023-02-01T03:06:13;14.37;;;3.70;;
14251;SDS011;7210;51.502;10.722;2023-02-01T03:08:45;13.70;;;3.50;;
14251;SDS011;7210;51.502;10.722;2023-02-01T03:11:13;15.37;;;3.67;;
14251;SDS011;7210;51.502;10.722;2023-02-01T03:17:04;12.97;;;3.47;;
14251;SDS011;7210;51.502;10.722;2023-02-01T03:19:39;16.83;;;4.33;;
14251;SDS011;7210;51.502;10.722;2023-02-01T03:22:14;13.13;;;3.43;;
14251;SDS011;7210;51.502;10.722;2023-02-01T03:24:49;18.03;;;3.77;;
14251;SDS011;7210;51.502;10.722;2023-02-01T03:27:22;11.30;;;3.07;;
14251;SDS011;7210;51.502;10.722;2023-02-01T03:29:59;16.63;;;4.37;;
14251;SDS011;7210;51.502;10.722;2023-02-01T03:32:32;13.03;;;4.17;;
14251;SDS011;7210;51.502;10.722;2023-02-01T03:35:16;12.70;;;3.43;;
14251;SDS011;7210;51.502;10.722;2023-02-01T03:37:48;16.37;;;4.53;;
14251;SDS011;7210;51.502;10.722;2023-02-01T03:40:19;10.50;;;4.00;;
14251;SDS011;7210;51.502;10.722;2023-02-01T03:42:52;16.00;;;4.47;;
14251;SDS011;7210;51.502;10.722;2023-02-01T03:45:26;16.57;;;4.47;;
14251;SDS011;7210;51.502;10.722;2023-02-01T03:48:01;17.17;;;4.53;;
14251;SDS011;7210;51.502;10.722;2023-02-01T03:50:31;19.40;;;4.40;;
14251;SDS011;7210;51.502;10.722;2023-02-01T03:53:06;20.53;;;4.50;;
14251;SDS011;7210;51.502;10.722;2023-02-01T03:55:39;12.60;;;4.70;;
14251;SDS011;7210;51.502;10.722;2023-02-01T03:58:09;10.13;;;3.50;;
14251;SDS011;7210;51.502;10.722;2023-02-01T04:00:46;17.33;;;4.73;;
14251;SDS011;7210;51.502;10.722;2023-02-01T04:03:19;16.43;;;4.13;;
14251;SDS011;7210;51.502;10.722;2023-02-01T04:05:48;13.10;;;4.20;;
14251;SDS011;7210;51.502;10.722;2023-02-01T04:08:21;12.97;;;4.27;;
14251;SDS011;7210;51.502;10.722;2023-02-01T04:10:51;11.10;;;4.03;;
14251;SDS011;7210;51.502;10.722;2023-02-01T04:13:18;14.53;;;4.47;;
14251;SDS011;7210;51.502;10.722;2023-02-01T04:15:46;12.07;;;3.90;;
14251;SDS011;7210;51.502;10.722;2023-02-01T04:18:15;15.83;;;4.47;;
14251;SDS011;7210;51.502;10.722;2023-02-01T04:20:45;17.10;;;5.10;;
14251;SDS011;7210;51.502;10.722;2023-02-01T04:23:12;10.53;;;4.20;;
14251;SDS011;7210;51.502;10.722;2023-02-01T04:25:40;16.10;;;4.23;;
14251;SDS011;7210;51.502;10.722;2023-02-01T04:28:09;12.47;;;4.53;;
14251;SDS011;7210;51.502;10.722;2023-02-01T04:30:38;17.33;;;4.00;;
14251;SDS011;7210;51.502;10.722;2023-02-01T04:33:17;16.23;;;4.30;;
14251;SDS011;7210;51.502;10.722;2023-02-01T04:35:44;13.53;;;3.80;;
14251;SDS011;7210;51.502;10.722;2023-02-01T04:38:11;15.73;;;4.50;;
14251;SDS011;7210;51.502;10.722;2023-02-01T04:40:38;17.27;;;4.10;;
14251;SDS011;7210;51.502;10.722;2023-02-01T04:43:05;16.47;;;4.10;;
14251;SDS011;7210;51.502;10.722;2023-02-01T04:45:34;13.30;;;4.47;;
14251;SDS011;7210;51.502;10.722;2023-02-01T04:48:01;16.33;;;4.50;;
14251;SDS011;7210;51.502;10.722;2023-02-01T04:50:29;12.90;;;4.50;;
14251;SDS011;7210;51.502;10.722;2023-02-01T04:52:56;11.00;;;3.87;;
14251;SDS011;7210;51.502;10.722;2023-02-01T04:55:23;11.57;;;4.10;;
14251;SDS011;7210;51.502;10.722;2023-02-01T04:57:51;17.83;;;4.80;;
14251;SDS011;7210;51.502;10.722;2023-02-01T05:00:18;16.33;;;4.30;;
14251;SDS011;7210;51.502;10.722;2023-02-01T05:02:47;17.20;;;5.13;;
14251;SDS011;7210;51.502;10.722;2023-02-01T05:05:14;15.67;;;4.57;;
14251;SDS011;7210;51.502;10.722;2023-02-01T05:07:41;13.00;;;4.40;;
14251;SDS011;7210;51.502;10.722;2023-02-01T05:10:09;13.77;;;4.30;;
14251;SDS011;7210;51.502;10.722;2023-02-01T05:12:36;14.93;;;4.03;;
14251;SDS011;7210;51.502;10.722;2023-02-01T05:15:27;12.03;;;3.83;;
14251;SDS011;7210;51.502;10.722;2023-02-01T05:17:56;16.53;;;4.23;;
14251;SDS011;7210;51.502;10.722;2023-02-01T05:20:23;14.33;;;4.37;;
14251;SDS011;7210;51.502;10.722;2023-02-01T05:22:51;20.00;;;7.07;;
14251;SDS011;7210;51.502;10.722;2023-02-01T05:25:18;15.87;;;5.30;;
14251;SDS011;7210;51.502;10.722;2023-02-01T05:27:45;18.83;;;8.40;;
14251;SDS011;7210;51.502;10.722;2023-02-01T05:30:13;28.43;;;15.40;;
14251;SDS011;7210;51.502;10.722;2023-02-01T05:32:40;22.80;;;9.67;;
14251;SDS011;7210;51.502;10.722;2023-02-01T05:35:09;14.07;;;5.37;;
14251;SDS011;7210;51.502;10.722;2023-02-01T05:37:36;11.73;;;4.20;;
14251;SDS011;7210;51.502;10.722;2023-02-01T05:40:09;14.87;;;4.17;;
14251;SDS011;7210;51.502;10.722;2023-02-01T05:42:38;13.10;;;4.37;;
14251;SDS011;7210;51.502;10.722;2023-02-01T05:45:05;14.73;;;4.20;;
14251;SDS011;7210;51.502;10.722;2023-02-01T05:47:36;14.10;;;5.00;;
14251;SDS011;7210;51.502;10.722;2023-02-01T05:50:04;11.20;;;3.90;;
14251;SDS011;7210;51.502;10.722;2023-02-01T05:52:34;9.17;;;4.07;;
14251;SDS011;7210;51.502;10.722;2023-02-01T05:55:02;17.20;;;4.23;;
14251;SDS011;7210;51.502;10.722;2023-02-01T05:57:30;15.47;;;3.87;;
14251;SDS011;7210;51.502;10.722;2023-02-01T05:59:57;13.97;;;3.97;;
14251;SDS011;7210;51.502;10.722;2023-02-01T06:02:24;12.30;;;3.80;;
14251;SDS011;7210;51.502;10.722;2023-02-01T06:04:51;12.83;;;4.10;;
14251;SDS011;7210;51.502;10.722;2023-02-01T06:07:18;12.57;;;4.37;;
14251;SDS011;7210;51.502;10.722;2023-02-01T06:09:47;12.20;;;4.30;;
14251;SDS011;7210;51.502;10.722;2023-02-01T06:12:14;14.23;;;4.20;;
14251;SDS011;7210;51.502;10.722;2023-02-01T06:14:57;13.30;;;3.77;;
14251;SDS011;7210;51.502;10.722;2023-02-01T06:17:24;14.00;;;3.70;;
14251;SDS011;7210;51.502;10.722;2023-02-01T06:19:52;10.93;;;3.87;;
14251;SDS011;7210;51.502;10.722;2023-02-01T06:22:19;9.40;;;3.43;;
14251;SDS011;7210;51.502;10.722;2023-02-01T06:24:48;11.83;;;4.23;;
14251;SDS011;7210;51.502;10.722;2023-02-01T06:27:15;13.53;;;3.80;;
14251;SDS011;7210;51.502;10.722;2023-02-01T06:29:42;13.00;;;3.88;;
14251;SDS011;7210;51.502;10.722;2023-02-01T06:32:10;12.27;;;3.83;;
14251;SDS011;7210;51.502;10.722;2023-02-01T06:34:38;16.83;;;4.93;;
14251;SDS011;7210;51.502;10.722;2023-02-01T06:37:06;10.20;;;3.33;;
14251;SDS011;7210;51.502;10.722;2023-02-01T06:39:34;16.73;;;4.07;;
14251;SDS011;7210;51.502;10.722;2023-02-01T06:42:04;16.33;;;5.13;;
14251;SDS011;7210;51.502;10.722;2023-02-01T06:44:31;11.40;;;4.03;;
14251;SDS011;7210;51.502;10.722;2023-02-01T06:46:58;14.50;;;4.73;;
14251;SDS011;7210;51.502;10.722;2023-02-01T06:49:25;10.27;;;3.73;;
14251;SDS011;7210;51.502;10.722;2023-02-01T06:51:52;15.33;;;4.50;;
14251;SDS011;7210;51.502;10.722;2023-02-01T06:54:20;11.33;;;4.53;;
14251;SDS011;7210;51.502;10.722;2023-02-01T06:56:47;10.43;;;3.87;;
14251;SDS011;7210;51.502;10.722;2023-02-01T06:59:15;12.57;;;4.17;;
14251;SDS011;7210;51.502;10.722;2023-02-01T07:01:45;7.80;;;3.63;;
14251;SDS011;7210;51.502;10.722;2023-02-01T07:04:13;9.97;;;3.80;;
14251;SDS011;7210;51.502;10.722;2023-02-01T07:06:40;12.73;;;4.37;;
14251;SDS011;7210;51.502;10.722;2023-02-01T07:09:08;8.47;;;4.37;;
14251;SDS011;7210;51.502;10.722;2023-02-01T07:11:37;9.13;;;3.47;;
14251;SDS011;7210;51.502;10.722;2023-02-01T07:14:08;9.67;;;3.97;;
14251;SDS011;7210;51.502;10.722;2023-02-01T07:16:37;12.07;;;3.87;;
14251;SDS011;7210;51.502;10.722;2023-02-01T07:19:04;11.20;;;4.73;;
14251;SDS011;7210;51.502;10.722;2023-02-01T07:21:32;12.60;;;4.67;;
14251;SDS011;7210;51.502;10.722;2023-02-01T07:23:59;9.23;;;4.83;;
14251;SDS011;7210;51.502;10.722;2023-02-01T07:26:27;11.53;;;4.33;;
14251;SDS011;7210;51.502;10.722;2023-02-01T07:28:54;13.73;;;4.63;;
14251;SDS011;7210;51.502;10.722;2023-02-01T07:31:21;11.00;;;4.40;;
14251;SDS011;7210;51.502;10.722;2023-02-01T07:33:52;9.57;;;4.03;;
14251;SDS011;7210;51.502;10.722;2023-02-01T07:36:21;12.90;;;4.83;;
14251;SDS011;7210;51.502;10.722;2023-02-01T07:38:48;14.57;;;4.50;;
14251;SDS011;7210;51.502;10.722;2023-02-01T07:41:17;10.80;;;3.80;;
14251;SDS011;7210;51.502;10.722;2023-02-01T07:43:44;11.13;;;4.47;;
14251;SDS011;7210;51.502;10.722;2023-02-01T07:46:11;11.83;;;4.13;;
14251;SDS011;7210;51.502;10.722;2023-02-01T07:48:41;13.60;;;5.07;;
14251;SDS011;7210;51.502;10.722;2023-02-01T07:51:11;12.37;;;4.63;;
14251;SDS011;7210;51.502;10.722;2023-02-01T07:53:40;15.20;;;4.70;;
14251;SDS011;7210;51.502;10.722;2023-02-01T07:56:10;10.07;;;4.60;;
14251;SDS011;7210;51.502;10.722;2023-02-01T07:58:40;11.03;;;4.87;;
14251;SDS011;7210;51.502;10.722;2023-02-01T08:04:00;14.07;;;5.33;;
14251;SDS011;7210;51.502;10.722;2023-02-01T08:06:35;16.97;;;5.37;;
14251;SDS011;7210;51.502;10.722;2023-02-01T08:09:02;16.80;;;5.40;;
14251;SDS011;7210;51.502;10.722;2023-02-01T08:11:30;18.23;;;5.80;;
14251;SDS011;7210;51.502;10.722;2023-02-01T08:13:59;12.53;;;4.70;;
14251;SDS011;7210;51.502;10.722;2023-02-01T08:16:26;15.00;;;5.50;;
14251;SDS011;7210;51.502;10.722;2023-02-01T08:18:53;18.00;;;5.67;;
14251;SDS011;7210;51.502;10.722;2023-02-01T08:21:22;12.30;;;4.73;;
14251;SDS011;7210;51.502;10.722;2023-02-01T08:23:52;15.33;;;4.83;;
14251;SDS011;7210;51.502;10.722;2023-02-01T08:26:21;13.50;;;5.53;;
14251;SDS011;7210;51.502;10.722;2023-02-01T08:28:52;13.70;;;4.93;;
14251;SDS011;7210;51.502;10.722;2023-02-01T08:31:23;14.07;;;5.40;;
14251;SDS011;7210;51.502;10.722;2023-02-01T08:33:53;12.67;;;4.90;;
14251;SDS011;7210;51.502;10.722;2023-02-01T08:36:23;16.40;;;4.83;;
14251;SDS011;7210;51.502;10.722;2023-02-01T08:38:54;16.63;;;5.20;;
14251;SDS011;7210;51.502;10.722;2023-02-01T08:41:23;19.23;;;6.07;;
14251;SDS011;7210;51.502;10.722;2023-02-01T08:43:52;17.07;;;5.27;;
14251;SDS011;7210;51.502;10.722;2023-02-01T08:46:20;13.67;;;6.83;;
14251;SDS011;7210;51.502;10.722;2023-02-01T08:48:49;16.33;;;5.70;;
14251;SDS011;7210;51.502;10.722;2023-02-01T08:51:17;12.80;;;5.37;;
14251;SDS011;7210;51.502;10.722;2023-02-01T08:53:48;13.87;;;7.80;;
14251;SDS011;7210;51.502;10.722;2023-02-01T08:56:18;19.77;;;5.47;;
14251;SDS011;7210;51.502;10.722;2023-02-01T08:58:46;10.90;;;5.20;;
14251;SDS011;7210;51.502;10.722;2023-02-01T09:01:14;14.30;;;4.23;;
14251;SDS011;7210;51.502;10.722;2023-02-01T09:03:43;11.97;;;4.93;;
14251;SDS011;7210;51.502;10.722;2023-02-01T09:06:11;18.23;;;5.10;;
14251;SDS011;7210;51.502;10.722;2023-02-01T09:08:41;9.93;;;5.10;;
14251;SDS011;7210;51.502;10.722;2023-02-01T09:11:11;10.77;;;3.63;;
14251;SDS011;7210;51.502;10.722;2023-02-01T09:13:42;10.10;;;3.90;;
14251;SDS011;7210;51.502;10.722;2023-02-01T09:16:10;8.83;;;3.97;;
14251;SDS011;7210;51.502;10.722;2023-02-01T09:18:37;11.43;;;3.87;;
14251;SDS011;7210;51.502;10.722;2023-02-01T09:21:04;13.27;;;4.30;;
14251;SDS011;7210;51.502;10.722;2023-02-01T09:23:33;9.53;;;3.90;;
14251;SDS011;7210;51.502;10.722;2023-02-01T09:26:02;8.70;;;3.63;;
14251;SDS011;7210;51.502;10.722;2023-02-01T09:28:31;10.10;;;3.87;;
14251;SDS011;7210;51.502;10.722;2023-02-01T09:31:00;10.30;;;3.70;;
14251;SDS011;7210;51.502;10.722;2023-02-01T09:33:28;8.77;;;4.10;;
14251;SDS011;7210;51.502;10.722;2023-02-01T09:35:56;9.73;;;4.10;;
14251;SDS011;7210;51.502;10.722;2023-02-01T09:38:23;16.67;;;4.57;;
14251;SDS011;7210;51.502;10.722;2023-02-01T09:40:52;8.10;;;3.00;;
14251;SDS011;7210;51.502;10.722;2023-02-01T09:43:23;9.87;;;3.50;;
14251;SDS011;7210;51.502;10.722;2023-02-01T09:46:10;8.40;;;3.30;;
14251;SDS011;7210;51.502;10.722;2023-02-01T09:48:49;10.33;;;3.73;;
14251;SDS011;7210;51.502;10.722;2023-02-01T09:51:23;12.10;;;4.10;;
14251;SDS011;7210;51.502;10.722;2023-02-01T09:53:58;9.17;;;3.60;;
14251;SDS011;7210;51.502;10.722;2023-02-01T09:56:33;9.67;;;3.93;;
14251;SDS011;7210;51.502;10.722;2023-02-01T09:59:09;8.67;;;3.77;;
14251;SDS011;7210;51.502;10.722;2023-02-01T10:01:51;14.33;;;4.03;;
14251;SDS011;7210;51.502;10.722;2023-02-01T10:04:19;11.77;;;3.93;;
14251;SDS011;7210;51.502;10.722;2023-02-01T10:06:53;10.87;;;3.60;;
14251;SDS011;7210;51.502;10.722;2023-02-01T10:09:50;14.67;;;4.50;;
14251;SDS011;7210;51.502;10.722;2023-02-01T10:12:38;13.60;;;4.43;;
14251;SDS011;7210;51.502;10.722;2023-02-01T10:15:30;9.10;;;3.80;;
14251;SDS011;7210;51.502;10.722;2023-02-01T10:18:23;11.67;;;4.90;;
14251;SDS011;7210;51.502;10.722;2023-02-01T10:21:16;13.27;;;4.33;;
14251;SDS011;7210;51.502;10.722;2023-02-01T10:27:09;8.13;;;3.80;;
14251;SDS011;7210;51.502;10.722;2023-02-01T10:29:44;14.47;;;3.90;;
14251;SDS011;7210;51.502;10.722;2023-02-01T10:32:17;13.20;;;4.20;;
14251;SDS011;7210;51.502;10.722;2023-02-01T10:34:51;13.37;;;4.60;;
14251;SDS011;7210;51.502;10.722;2023-02-01T10:37:26;11.53;;;3.37;;
14251;SDS011;7210;51.502;10.722;2023-02-01T10:39:57;9.90;;;4.00;;
14251;SDS011;7210;51.502;10.722;2023-02-01T10:42:36;13.33;;;4.20;;
14251;SDS011;7210;51.502;10.722;2023-02-01T10:45:05;14.67;;;4.40;;
14251;SDS011;7210;51.502;10.722;2023-02-01T10:47:39;14.67;;;4.30;;
14251;SDS011;7210;51.502;10.722;2023-02-01T10:50:12;12.00;;;4.07;;
14251;SDS011;7210;51.502;10.722;2023-02-01T10:52:51;9.77;;;3.83;;
14251;SDS011;7210;51.502;10.722;2023-02-01T10:55:29;12.03;;;4.13;;
14251;SDS011;7210;51.502;10.722;2023-02-01T10:58:03;10.00;;;4.00;;
14251;SDS011;7210;51.502;10.722;2023-02-01T11:00:34;12.60;;;4.20;;
14251;SDS011;7210;51.502;10.722;2023-02-01T11:03:19;8.67;;;4.53;;
14251;SDS011;7210;51.502;10.722;2023-02-01T11:06:19;15.17;;;4.10;;
14251;SDS011;7210;51.502;10.722;2023-02-01T11:08:54;7.47;;;3.33;;
14251;SDS011;7210;51.502;10.722;2023-02-01T11:11:24;10.60;;;3.83;;
14251;SDS011;7210;51.502;10.722;2023-02-01T11:13:53;8.17;;;3.23;;
14251;SDS011;7210;51.502;10.722;2023-02-01T11:16:28;10.70;;;5.10;;
14251;SDS011;7210;51.502;10.722;2023-02-01T11:19:01;14.17;;;5.07;;
14251;SDS011;7210;51.502;10.722;2023-02-01T11:21:31;12.33;;;4.80;;
14251;SDS011;7210;51.502;10.722;2023-02-01T11:24:00;25.10;;;15.63;;
14251;SDS011;7210;51.502;10.722;2023-02-01T11:26:30;18.00;;;6.80;;
14251;SDS011;7210;51.502;10.722;2023-02-01T11:28:59;10.27;;;3.87;;
14251;SDS011;7210;51.502;10.722;2023-02-01T11:31:31;12.27;;;4.43;;
14251;SDS011;7210;51.502;10.722;2023-02-01T11:34:05;8.87;;;3.10;;
14251;SDS011;7210;51.502;10.722;2023-02-01T11:36:36;9.77;;;3.50;;
14251;SDS011;7210;51.502;10.722;2023-02-01T11:39:24;10.13;;;3.37;;
14251;SDS011;7210;51.502;10.722;2023-02-01T11:41:57;9.60;;;3.13;;
14251;SDS011;7210;51.502;10.722;2023-02-01T11:44:31;12.47;;;3.40;;
14251;SDS011;7210;51.502;10.722;2023-02-01T11:47:20;8.33;;;2.93;;
14251;SDS011;7210;51.502;10.722;2023-02-01T11:49:52;12.70;;;2.83;;
14251;SDS011;7210;51.502;10.722;2023-02-01T11:52:28;9.07;;;3.27;;
14251;SDS011;7210;51.502;10.722;2023-02-01T11:55:21;11.10;;;3.10;;
14251;SDS011;7210;51.502;10.722;2023-02-01T11:58:18;9.17;;;3.37;;
14251;SDS011;7210;51.502;10.722;2023-02-01T12:01:10;8.90;;;3.47;;
14251;SDS011;7210;51.502;10.722;2023-02-01T12:04:10;9.80;;;3.23;;
14251;SDS011;7210;51.502;10.722;2023-02-01T12:07:12;10.03;;;3.30;;
14251;SDS011;7210;51.502;10.722;2023-02-01T12:09:54;11.10;;;2.97;;
14251;SDS011;7210;51.502;10.722;2023-02-01T12:12:40;9.77;;;3.57;;
14251;SDS011;7210;51.502;10.722;2023-02-01T12:15:27;7.73;;;2.73;;
14251;SDS011;7210;51.502;10.722;2023-02-01T12:18:24;8.53;;;3.17;;
14251;SDS011;7210;51.502;10.722;2023-02-01T12:21:17;7.13;;;3.10;;
14251;SDS011;7210;51.502;10.722;2023-02-01T12:24:07;7.97;;;2.73;;
14251;SDS011;7210;51.502;10.722;2023-02-01T12:27:19;10.87;;;3.50;;
14251;SDS011;7210;51.502;10.722;2023-02-01T12:30:28;9.47;;;3.20;;
14251;SDS011;7210;51.502;10.722;2023-02-01T12:33:34;11.63;;;3.10;;
14251;SDS011;7210;51.502;10.722;2023-02-01T12:36:22;6.60;;;2.80;;
14251;SDS011;7210;51.502;10.722;2023-02-01T12:39:02;8.67;;;2.83;;
14251;SDS011;7210;51.502;10.722;2023-02-01T12:41:45;6.23;;;2.23;;
14251;SDS011;7210;51.502;10.722;2023-02-01T12:44:27;10.40;;;3.07;;
14251;SDS011;7210;51.502;10.722;2023-02-01T12:47:05;12.23;;;3.13;;
14251;SDS011;7210;51.502;10.722;2023-02-01T12:49:43;11.27;;;3.17;;
14251;SDS011;7210;51.502;10.722;2023-02-01T12:52:18;7.60;;;2.70;;
14251;SDS011;7210;51.502;10.722;2023-02-01T12:54:55;10.20;;;3.57;;
14251;SDS011;7210;51.502;10.722;2023-02-01T12:57:30;5.27;;;2.50;;
14251;SDS011;7210;51.502;10.722;2023-02-01T13:00:04;6.87;;;2.70;;
14251;SDS011;7210;51.502;10.722;2023-02-01T13:02:50;11.90;;;3.17;;
14251;SDS011;7210;51.502;10.722;2023-02-01T13:05:28;9.10;;;3.70;;
14251;SDS011;7210;51.502;10.722;2023-02-01T13:08:10;11.20;;;3.53;;
14251;SDS011;7210;51.502;10.722;2023-02-01T13:10:45;9.97;;;2.90;;
14251;SDS011;7210;51.502;10.722;2023-02-01T13:13:19;6.00;;;3.00;;
14251;SDS011;7210;51.502;10.722;2023-02-01T13:15:57;5.80;;;3.00;;
14251;SDS011;7210;51.502;10.722;2023-02-01T13:18:43;6.80;;;3.30;;
14251;SDS011;7210;51.502;10.722;2023-02-01T13:21:17;6.40;;;3.00;;
14251;SDS011;7210;51.502;10.722;2023-02-01T13:23:50;9.70;;;3.40;;
14251;SDS011;7210;51.502;10.722;2023-02-01T13:26:19;7.97;;;3.57;;
14251;SDS011;7210;51.502;10.722;2023-02-01T13:28:46;7.77;;;3.23;;
14251;SDS011;7210;51.502;10.722;2023-02-01T13:31:26;7.13;;;2.90;;
14251;SDS011;7210;51.502;10.722;2023-02-01T13:34:35;11.10;;;3.00;;
14251;SDS011;7210;51.502;10.722;2023-02-01T13:37:50;9.87;;;3.60;;
14251;SDS011;7210;51.502;10.722;2023-02-01T13:40:39;10.30;;;4.23;;
14251;SDS011;7210;51.502;10.722;2023-02-01T13:43:12;8.83;;;3.37;;
14251;SDS011;7210;51.502;10.722;2023-02-01T13:45:46;5.80;;;3.00;;
14251;SDS011;7210;51.502;10.722;2023-02-01T13:48:20;6.40;;;3.60;;
14251;SDS011;7210;51.502;10.722;2023-02-01T13:50:56;8.03;;;3.40;;
14251;SDS011;7210;51.502;10.722;2023-02-01T13:53:27;8.47;;;3.47;;
14251;SDS011;7210;51.502;10.722;2023-02-01T13:55:59;6.57;;;2.70;;
14251;SDS011;7210;51.502;10.722;2023-02-01T13:58:32;8.17;;;2.93;;
14251;SDS011;7210;51.502;10.722;2023-02-01T14:04:02;8.70;;;3.13;;
14251;SDS011;7210;51.502;10.722;2023-02-01T14:06:36;4.90;;;3.13;;
14251;SDS011;7210;51.502;10.722;2023-02-01T14:09:11;9.83;;;3.73;;
14251;SDS011;7210;51.502;10.722;2023-02-01T14:11:44;8.90;;;3.20;;
14251;SDS011;7210;51.502;10.722;2023-02-01T14:23:21;6.03;;;2.67;;
14251;SDS011;7210;51.502;10.722;2023-02-01T14:28:58;6.00;;;2.40;;
14251;SDS011;7210;51.502;10.722;2023-02-01T14:31:37;3.83;;;2.17;;
14251;SDS011;7210;51.502;10.722;2023-02-01T14:37:25;6.53;;;2.60;;
14251;SDS011;7210;51.502;10.722;2023-02-01T14:39:58;7.33;;;2.30;;
14251;SDS011;7210;51.502;10.722;2023-02-01T14:42:29;5.87;;;2.03;;
14251;SDS011;7210;51.502;10.722;2023-02-01T14:51:11;6.57;;;2.60;;
14251;SDS011;7210;51.502;10.722;2023-02-01T14:53:45;5.53;;;2.37;;
14251;SDS011;7210;51.502;10.722;2023-02-01T14:56:14;3.37;;;2.13;;
14251;SDS011;7210;51.502;10.722;2023-02-01T14:58:48;6.80;;;2.63;;
14251;SDS011;7210;51.502;10.722;2023-02-01T15:01:23;4.57;;;2.17;;
14251;SDS011;7210;51.502;10.722;2023-02-01T15:03:55;2.90;;;1.80;;
14251;SDS011;7210;51.502;10.722;2023-02-01T15:06:32;5.23;;;2.30;;
14251;SDS011;7210;51.502;10.722;2023-02-01T15:09:09;4.90;;;2.50;;
14251;SDS011;7210;51.502;10.722;2023-02-01T15:11:56;3.77;;;2.20;;
14251;SDS011;7210;51.502;10.722;2023-02-01T15:14:29;6.03;;;2.10;;
14251;SDS011;7210;51.502;10.722;2023-02-01T15:16:59;5.67;;;2.40;;
14251;SDS011;7210;51.502;10.722;2023-02-01T15:19:27;6.20;;;2.30;;
14251;SDS011;7210;51.502;10.722;2023-02-01T15:21:57;3.93;;;2.40;;
14251;SDS011;7210;51.502;10.722;2023-02-01T15:24:27;5.00;;;2.20;;
14251;SDS011;7210;51.502;10.722;2023-02-01T15:26:58;5.90;;;2.50;;
14251;SDS011;7210;51.502;10.722;2023-02-01T15:29:31;6.23;;;2.57;;
14251;SDS011;7210;51.502;10.722;2023-02-01T15:31:59;4.50;;;2.60;;
14251;SDS011;7210;51.502;10.722;2023-02-01T15:37:13;7.00;;;3.20;;
14251;SDS011;7210;51.502;10.722;2023-02-01T15:42:49;2.47;;;1.30;;
14251;SDS011;7210;51.502;10.722;2023-02-01T15:45:21;9.27;;;5.90;;
14251;SDS011;7210;51.502;10.722;2023-02-01T15:47:53;20.57;;;14.77;;
14251;SDS011;7210;51.502;10.722;2023-02-01T15:50:28;2.70;;;2.33;;
14251;SDS011;7210;51.502;10.722;2023-02-01T15:52:59;2.60;;;1.93;;
14251;SDS011;7210;51.502;10.722;2023-02-01T15:55:36;2.37;;;2.17;;
14251;SDS011;7210;51.502;10.722;2023-02-01T15:58:07;4.17;;;2.43;;
14251;SDS011;7210;51.502;10.722;2023-02-01T16:00:42;2.00;;;1.80;;
14251;SDS011;7210;51.502;10.722;2023-02-01T16:03:25;3.77;;;2.87;;
14251;SDS011;7210;51.502;10.722;2023-02-01T16:06:00;4.00;;;3.10;;